sensor_id;sensor_type;location;lat;lon;timestamp;P1;durP1;ratioP1;P2;durP2;ratioP2
56045;SDS011;41913;51.030;3.706;2023-11-22T00:01:38;2.80;;;2.30;;
56045;SDS011;41913;51.030;3.706;2023-11-22T00:04:04;2.22;;;2.13;;
56045;SDS011;41913;51.030;3.706;2023-11-22T00:06:30;2.80;;;2.33;;
56045;SDS011;41913;51.030;3.706;2023-11-22T00:08:56;2.55;;;2.30;;
56045;SDS011;41913;51.030;3.706;2023-11-22T00:11:22;5.28;;;2.45;;
56045;SDS011;41913;51.030;3.706;2023-11-22T00:13:49;3.83;;;2.65;;
56045;SDS011;41913;51.030;3.706;2023-11-22T00:16:20;3.42;;;2.30;;
56045;SDS011;41913;51.030;3.706;2023-11-22T00:18:46;3.83;;;2.45;;
56045;SDS011;41913;51.030;3.706;2023-11-22T00:21:13;3.53;;;2.47;;
56045;SDS011;41913;51.030;3.706;2023-11-22T00:23:38;3.03;;;2.83;;
56045;SDS011;41913;51.030;3.706;2023-11-22T00:26:04;2.45;;;2.35;;
56045;SDS011;41913;51.030;3.706;2023-11-22T00:28:31;2.50;;;2.30;;
56045;SDS011;41913;51.030;3.706;2023-11-22T00:30:57;2.00;;;1.90;;
56045;SDS011;41913;51.030;3.706;2023-11-22T00:33:23;2.38;;;2.15;;
56045;SDS011;41913;51.030;3.706;2023-11-22T00:35:49;2.55;;;2.30;;
56045;SDS011;41913;51.030;3.706;2023-11-22T00:38:15;2.25;;;2.03;;
56045;SDS011;41913;51.030;3.706;2023-11-22T00:40:41;4.03;;;3.00;;
56045;SDS011;41913;51.030;3.706;2023-11-22T00:43:07;2.83;;;2.40;;
56045;SDS011;41913;51.030;3.706;2023-11-22T00:45:33;3.35;;;2.47;;
56045;SDS011;41913;51.030;3.706;2023-11-22T00:48:00;2.88;;;2.17;;
56045;SDS011;41913;51.030;3.706;2023-11-22T00:50:26;3.10;;;2.63;;
56045;SDS011;41913;51.030;3.706;2023-11-22T00:52:52;2.47;;;2.28;;
56045;SDS011;41913;51.030;3.706;2023-11-22T00:55:18;2.70;;;2.42;;
56045;SDS011;41913;51.030;3.706;2023-11-22T00:57:44;3.38;;;3.03;;
56045;SDS011;41913;51.030;3.706;2023-11-22T01:00:10;2.60;;;2.40;;
56045;SDS011;41913;51.030;3.706;2023-11-22T01:02:37;2.85;;;2.65;;
56045;SDS011;41913;51.030;3.706;2023-11-22T01:05:06;2.95;;;2.40;;
56045;SDS011;41913;51.030;3.706;2023-11-22T01:07:36;4.25;;;2.75;;
56045;SDS011;41913;51.030;3.706;2023-11-22T01:10:02;2.78;;;2.58;;
56045;SDS011;41913;51.030;3.706;2023-11-22T01:12:28;2.78;;;2.58;;
56045;SDS011;41913;51.030;3.706;2023-11-22T01:14:54;2.40;;;2.20;;
56045;SDS011;41913;51.030;3.706;2023-11-22T01:17:19;5.53;;;2.65;;
56045;SDS011;41913;51.030;3.706;2023-11-22T01:19:45;2.80;;;2.60;;
56045;SDS011;41913;51.030;3.706;2023-11-22T01:22:11;2.88;;;2.70;;
56045;SDS011;41913;51.030;3.706;2023-11-22T01:24:37;2.20;;;2.10;;
56045;SDS011;41913;51.030;3.706;2023-11-22T01:27:03;2.92;;;2.55;;
56045;SDS011;41913;51.030;3.706;2023-11-22T01:29:30;3.35;;;2.72;;
56045;SDS011;41913;51.030;3.706;2023-11-22T01:31:56;2.72;;;2.53;;
56045;SDS011;41913;51.030;3.706;2023-11-22T01:34:21;2.90;;;2.70;;
56045;SDS011;41913;51.030;3.706;2023-11-22T01:36:49;2.30;;;2.10;;
56045;SDS011;41913;51.030;3.706;2023-11-22T01:39:15;2.80;;;2.60;;
56045;SDS011;41913;51.030;3.706;2023-11-22T01:41:40;2.53;;;2.42;;
56045;SDS011;41913;51.030;3.706;2023-11-22T01:44:09;2.25;;;2.15;;
56045;SDS011;41913;51.030;3.706;2023-11-22T01:46:37;2.60;;;2.50;;
56045;SDS011;41913;51.030;3.706;2023-11-22T01:49:03;2.63;;;2.50;;
56045;SDS011;41913;51.030;3.706;2023-11-22T01:51:29;2.42;;;2.28;;
56045;SDS011;41913;51.030;3.706;2023-11-22T01:53:55;2.63;;;2.40;;
56045;SDS011;41913;51.030;3.706;2023-11-22T01:56:23;2.88;;;2.78;;
56045;SDS011;41913;51.030;3.706;2023-11-22T01:58:51;3.67;;;2.90;;
56045;SDS011;41913;51.030;3.706;2023-11-22T02:01:19;2.92;;;2.55;;
56045;SDS011;41913;51.030;3.706;2023-11-22T02:03:45;2.22;;;2.10;;
56045;SDS011;41913;51.030;3.706;2023-11-22T02:06:17;2.60;;;2.40;;
56045;SDS011;41913;51.030;3.706;2023-11-22T02:08:43;2.72;;;2.47;;
56045;SDS011;41913;51.030;3.706;2023-11-22T02:11:09;2.53;;;2.42;;
56045;SDS011;41913;51.030;3.706;2023-11-22T02:13:35;3.78;;;2.58;;
56045;SDS011;41913;51.030;3.706;2023-11-22T02:16:02;2.60;;;2.50;;
56045;SDS011;41913;51.030;3.706;2023-11-22T02:18:28;2.53;;;2.33;;
56045;SDS011;41913;51.030;3.706;2023-11-22T02:20:54;2.40;;;2.30;;
56045;SDS011;41913;51.030;3.706;2023-11-22T02:23:21;2.90;;;2.70;;
56045;SDS011;41913;51.030;3.706;2023-11-22T02:25:47;2.70;;;2.60;;
56045;SDS011;41913;51.030;3.706;2023-11-22T02:28:14;2.40;;;2.30;;
56045;SDS011;41913;51.030;3.706;2023-11-22T02:30:41;2.42;;;2.25;;
56045;SDS011;41913;51.030;3.706;2023-11-22T02:33:07;3.00;;;2.80;;
56045;SDS011;41913;51.030;3.706;2023-11-22T02:35:32;2.70;;;2.60;;
56045;SDS011;41913;51.030;3.706;2023-11-22T02:37:59;2.92;;;2.72;;
56045;SDS011;41913;51.030;3.706;2023-11-22T02:40:25;3.83;;;2.47;;
56045;SDS011;41913;51.030;3.706;2023-11-22T02:42:52;2.83;;;2.63;;
56045;SDS011;41913;51.030;3.706;2023-11-22T02:45:24;2.80;;;2.65;;
56045;SDS011;41913;51.030;3.706;2023-11-22T02:47:54;2.13;;;2.03;;
56045;SDS011;41913;51.030;3.706;2023-11-22T02:50:19;2.05;;;1.95;;
56045;SDS011;41913;51.030;3.706;2023-11-22T02:52:45;2.97;;;2.78;;
56045;SDS011;41913;51.030;3.706;2023-11-22T02:55:11;2.45;;;2.25;;
56045;SDS011;41913;51.030;3.706;2023-11-22T02:57:38;3.03;;;2.83;;
56045;SDS011;41913;51.030;3.706;2023-11-22T03:00:11;2.38;;;2.20;;
56045;SDS011;41913;51.030;3.706;2023-11-22T03:02:40;2.58;;;2.38;;
56045;SDS011;41913;51.030;3.706;2023-11-22T03:05:09;2.65;;;2.45;;
56045;SDS011;41913;51.030;3.706;2023-11-22T03:07:35;2.80;;;2.70;;
56045;SDS011;41913;51.030;3.706;2023-11-22T03:10:02;2.25;;;2.15;;
56045;SDS011;41913;51.030;3.706;2023-11-22T03:12:28;2.60;;;2.50;;
56045;SDS011;41913;51.030;3.706;2023-11-22T03:14:54;2.90;;;2.70;;
56045;SDS011;41913;51.030;3.706;2023-11-22T03:17:28;2.53;;;2.42;;
56045;SDS011;41913;51.030;3.706;2023-11-22T03:19:57;3.15;;;2.58;;
56045;SDS011;41913;51.030;3.706;2023-11-22T03:22:24;2.50;;;2.40;;
56045;SDS011;41913;51.030;3.706;2023-11-22T03:24:52;3.35;;;3.15;;
56045;SDS011;41913;51.030;3.706;2023-11-22T03:27:18;2.42;;;2.22;;
56045;SDS011;41913;51.030;3.706;2023-11-22T03:29:43;2.80;;;2.60;;
56045;SDS011;41913;51.030;3.706;2023-11-22T03:32:09;3.05;;;2.85;;
56045;SDS011;41913;51.030;3.706;2023-11-22T03:34:36;2.70;;;2.50;;
56045;SDS011;41913;51.030;3.706;2023-11-22T03:37:02;2.65;;;2.53;;
56045;SDS011;41913;51.030;3.706;2023-11-22T03:39:28;2.08;;;1.98;;
56045;SDS011;41913;51.030;3.706;2023-11-22T03:41:53;2.45;;;2.35;;
56045;SDS011;41913;51.030;3.706;2023-11-22T03:44:19;2.70;;;2.55;;
56045;SDS011;41913;51.030;3.706;2023-11-22T03:46:45;2.70;;;2.60;;
56045;SDS011;41913;51.030;3.706;2023-11-22T03:49:11;2.50;;;2.30;;
56045;SDS011;41913;51.030;3.706;2023-11-22T03:51:38;2.42;;;2.33;;
56045;SDS011;41913;51.030;3.706;2023-11-22T03:54:04;2.60;;;2.40;;
56045;SDS011;41913;51.030;3.706;2023-11-22T03:56:31;2.50;;;2.30;;
56045;SDS011;41913;51.030;3.706;2023-11-22T03:58:57;2.80;;;2.70;;
56045;SDS011;41913;51.030;3.706;2023-11-22T04:01:22;2.25;;;2.15;;
56045;SDS011;41913;51.030;3.706;2023-11-22T04:03:48;3.22;;;3.03;;
56045;SDS011;41913;51.030;3.706;2023-11-22T04:06:17;2.47;;;2.38;;
56045;SDS011;41913;51.030;3.706;2023-11-22T04:08:44;2.60;;;2.40;;
56045;SDS011;41913;51.030;3.706;2023-11-22T04:11:11;2.67;;;2.58;;
56045;SDS011;41913;51.030;3.706;2023-11-22T04:13:37;2.92;;;2.75;;
56045;SDS011;41913;51.030;3.706;2023-11-22T04:16:03;3.00;;;2.80;;
56045;SDS011;41913;51.030;3.706;2023-11-22T04:18:32;2.63;;;2.40;;
56045;SDS011;41913;51.030;3.706;2023-11-22T04:20:58;2.20;;;2.10;;
56045;SDS011;41913;51.030;3.706;2023-11-22T04:23:26;2.60;;;2.40;;
56045;SDS011;41913;51.030;3.706;2023-11-22T04:25:51;2.58;;;2.47;;
56045;SDS011;41913;51.030;3.706;2023-11-22T04:28:17;1.85;;;1.80;;
56045;SDS011;41913;51.030;3.706;2023-11-22T04:30:44;2.35;;;2.25;;
56045;SDS011;41913;51.030;3.706;2023-11-22T04:33:10;2.80;;;2.60;;
56045;SDS011;41913;51.030;3.706;2023-11-22T04:35:36;2.50;;;2.30;;
56045;SDS011;41913;51.030;3.706;2023-11-22T04:38:03;2.53;;;2.40;;
56045;SDS011;41913;51.030;3.706;2023-11-22T04:40:30;2.30;;;2.20;;
56045;SDS011;41913;51.030;3.706;2023-11-22T04:42:56;2.45;;;2.35;;
56045;SDS011;41913;51.030;3.706;2023-11-22T04:45:21;2.60;;;2.40;;
56045;SDS011;41913;51.030;3.706;2023-11-22T04:47:47;2.90;;;2.65;;
56045;SDS011;41913;51.030;3.706;2023-11-22T04:50:13;2.20;;;2.10;;
56045;SDS011;41913;51.030;3.706;2023-11-22T04:52:39;2.10;;;2.00;;
56045;SDS011;41913;51.030;3.706;2023-11-22T04:55:06;3.33;;;3.13;;
56045;SDS011;41913;51.030;3.706;2023-11-22T04:57:32;2.17;;;2.08;;
56045;SDS011;41913;51.030;3.706;2023-11-22T04:59:58;3.05;;;2.85;;
56045;SDS011;41913;51.030;3.706;2023-11-22T05:02:25;2.45;;;2.28;;
56045;SDS011;41913;51.030;3.706;2023-11-22T05:04:53;2.50;;;2.33;;
56045;SDS011;41913;51.030;3.706;2023-11-22T05:07:19;2.30;;;2.20;;
56045;SDS011;41913;51.030;3.706;2023-11-22T05:09:44;2.75;;;2.55;;
56045;SDS011;41913;51.030;3.706;2023-11-22T05:12:10;3.00;;;2.80;;
56045;SDS011;41913;51.030;3.706;2023-11-22T05:14:37;3.22;;;2.10;;
56045;SDS011;41913;51.030;3.706;2023-11-22T05:17:03;7.03;;;2.50;;
56045;SDS011;41913;51.030;3.706;2023-11-22T05:19:29;2.95;;;2.75;;
56045;SDS011;41913;51.030;3.706;2023-11-22T05:21:56;2.53;;;2.40;;
56045;SDS011;41913;51.030;3.706;2023-11-22T05:24:23;3.08;;;2.85;;
56045;SDS011;41913;51.030;3.706;2023-11-22T05:26:49;2.85;;;2.63;;
56045;SDS011;41913;51.030;3.706;2023-11-22T05:29:15;2.45;;;2.35;;
56045;SDS011;41913;51.030;3.706;2023-11-22T05:31:41;2.63;;;2.53;;
56045;SDS011;41913;51.030;3.706;2023-11-22T05:34:08;3.70;;;2.58;;
56045;SDS011;41913;51.030;3.706;2023-11-22T05:36:34;2.80;;;2.58;;
56045;SDS011;41913;51.030;3.706;2023-11-22T05:38:59;2.88;;;2.78;;
56045;SDS011;41913;51.030;3.706;2023-11-22T05:41:25;2.67;;;2.47;;
56045;SDS011;41913;51.030;3.706;2023-11-22T05:43:52;3.00;;;2.80;;
56045;SDS011;41913;51.030;3.706;2023-11-22T05:46:19;2.80;;;2.60;;
56045;SDS011;41913;51.030;3.706;2023-11-22T05:48:53;2.65;;;2.55;;
56045;SDS011;41913;51.030;3.706;2023-11-22T05:51:20;2.50;;;2.40;;
56045;SDS011;41913;51.030;3.706;2023-11-22T05:53:46;2.85;;;2.65;;
56045;SDS011;41913;51.030;3.706;2023-11-22T05:56:12;2.67;;;2.47;;
56045;SDS011;41913;51.030;3.706;2023-11-22T05:58:38;2.67;;;2.58;;
56045;SDS011;41913;51.030;3.706;2023-11-22T06:01:06;2.17;;;2.08;;
56045;SDS011;41913;51.030;3.706;2023-11-22T06:03:34;2.70;;;2.50;;
56045;SDS011;41913;51.030;3.706;2023-11-22T06:06:01;2.92;;;2.80;;
56045;SDS011;41913;51.030;3.706;2023-11-22T06:08:28;2.53;;;2.42;;
56045;SDS011;41913;51.030;3.706;2023-11-22T06:10:55;2.40;;;2.30;;
56045;SDS011;41913;51.030;3.706;2023-11-22T06:13:23;2.88;;;2.67;;
56045;SDS011;41913;51.030;3.706;2023-11-22T06:15:49;2.65;;;2.47;;
56045;SDS011;41913;51.030;3.706;2023-11-22T06:18:15;3.08;;;2.67;;
56045;SDS011;41913;51.030;3.706;2023-11-22T06:20:42;2.80;;;2.70;;
56045;SDS011;41913;51.030;3.706;2023-11-22T06:23:08;3.20;;;2.90;;
56045;SDS011;41913;51.030;3.706;2023-11-22T06:25:34;2.60;;;2.50;;
56045;SDS011;41913;51.030;3.706;2023-11-22T06:28:03;2.40;;;2.30;;
56045;SDS011;41913;51.030;3.706;2023-11-22T06:30:28;2.28;;;2.17;;
56045;SDS011;41913;51.030;3.706;2023-11-22T06:32:55;3.20;;;2.95;;
56045;SDS011;41913;51.030;3.706;2023-11-22T06:35:22;3.63;;;3.30;;
56045;SDS011;41913;51.030;3.706;2023-11-22T06:37:51;2.55;;;2.35;;
56045;SDS011;41913;51.030;3.706;2023-11-22T06:40:16;19.88;;;3.30;;
56045;SDS011;41913;51.030;3.706;2023-11-22T06:42:44;16.17;;;2.85;;
56045;SDS011;41913;51.030;3.706;2023-11-22T06:45:10;25.27;;;5.40;;
56045;SDS011;41913;51.030;3.706;2023-11-22T06:47:41;32.97;;;5.40;;
56045;SDS011;41913;51.030;3.706;2023-11-22T06:50:08;37.72;;;6.70;;
56045;SDS011;41913;51.030;3.706;2023-11-22T06:52:38;24.98;;;5.75;;
56045;SDS011;41913;51.030;3.706;2023-11-22T06:55:05;24.30;;;4.05;;
56045;SDS011;41913;51.030;3.706;2023-11-22T06:57:39;18.13;;;4.13;;
56045;SDS011;41913;51.030;3.706;2023-11-22T07:00:05;11.48;;;4.45;;
56045;SDS011;41913;51.030;3.706;2023-11-22T07:05:03;15.05;;;4.25;;
56045;SDS011;41913;51.030;3.706;2023-11-22T07:07:37;7.78;;;4.88;;
56045;SDS011;41913;51.030;3.706;2023-11-22T07:10:03;9.45;;;4.22;;
56045;SDS011;41913;51.030;3.706;2023-11-22T07:12:31;9.93;;;3.72;;
56045;SDS011;41913;51.030;3.706;2023-11-22T07:15:00;5.95;;;4.55;;
56045;SDS011;41913;51.030;3.706;2023-11-22T07:17:28;4.95;;;3.88;;
56045;SDS011;41913;51.030;3.706;2023-11-22T07:19:55;8.00;;;4.45;;
56045;SDS011;41913;51.030;3.706;2023-11-22T07:22:22;5.70;;;5.20;;
56045;SDS011;41913;51.030;3.706;2023-11-22T07:24:50;6.00;;;4.85;;
56045;SDS011;41913;51.030;3.706;2023-11-22T07:27:36;8.20;;;5.70;;
56045;SDS011;41913;51.030;3.706;2023-11-22T07:30:02;7.95;;;5.57;;
56045;SDS011;41913;51.030;3.706;2023-11-22T07:32:30;6.53;;;5.25;;
56045;SDS011;41913;51.030;3.706;2023-11-22T07:34:56;7.45;;;5.13;;
56045;SDS011;41913;51.030;3.706;2023-11-22T07:37:22;5.53;;;5.00;;
56045;SDS011;41913;51.030;3.706;2023-11-22T07:39:49;7.78;;;4.82;;
56045;SDS011;41913;51.030;3.706;2023-11-22T07:42:16;4.05;;;3.75;;
56045;SDS011;41913;51.030;3.706;2023-11-22T07:44:43;5.00;;;4.60;;
56045;SDS011;41913;51.030;3.706;2023-11-22T07:47:12;3.33;;;3.13;;
56045;SDS011;41913;51.030;3.706;2023-11-22T07:49:39;5.65;;;4.07;;
56045;SDS011;41913;51.030;3.706;2023-11-22T07:52:05;4.85;;;4.07;;
56045;SDS011;41913;51.030;3.706;2023-11-22T07:54:32;5.60;;;5.10;;
56045;SDS011;41913;51.030;3.706;2023-11-22T07:59:29;7.95;;;4.32;;
56045;SDS011;41913;51.030;3.706;2023-11-22T08:01:55;11.48;;;3.70;;
56045;SDS011;41913;51.030;3.706;2023-11-22T08:04:23;5.28;;;3.35;;
56045;SDS011;41913;51.030;3.706;2023-11-22T08:06:50;5.65;;;3.70;;
56045;SDS011;41913;51.030;3.706;2023-11-22T08:09:17;4.68;;;4.18;;
56045;SDS011;41913;51.030;3.706;2023-11-22T08:11:44;4.28;;;3.47;;
56045;SDS011;41913;51.030;3.706;2023-11-22T08:14:10;5.63;;;3.25;;
56045;SDS011;41913;51.030;3.706;2023-11-22T08:16:38;3.92;;;3.00;;
56045;SDS011;41913;51.030;3.706;2023-11-22T08:19:09;3.47;;;3.20;;
56045;SDS011;41913;51.030;3.706;2023-11-22T08:21:35;3.50;;;3.15;;
56045;SDS011;41913;51.030;3.706;2023-11-22T08:24:01;3.88;;;3.67;;
56045;SDS011;41913;51.030;3.706;2023-11-22T08:26:28;5.13;;;3.85;;
56045;SDS011;41913;51.030;3.706;2023-11-22T08:28:54;3.83;;;3.50;;
56045;SDS011;41913;51.030;3.706;2023-11-22T08:31:21;9.05;;;3.58;;
56045;SDS011;41913;51.030;3.706;2023-11-22T08:33:50;4.20;;;3.22;;
56045;SDS011;41913;51.030;3.706;2023-11-22T08:36:17;5.72;;;4.07;;
56045;SDS011;41913;51.030;3.706;2023-11-22T08:38:43;7.05;;;3.90;;
56045;SDS011;41913;51.030;3.706;2023-11-22T08:41:10;4.47;;;3.55;;
56045;SDS011;41913;51.030;3.706;2023-11-22T08:43:40;3.65;;;3.30;;
56045;SDS011;41913;51.030;3.706;2023-11-22T08:46:08;3.50;;;3.28;;
56045;SDS011;41913;51.030;3.706;2023-11-22T08:48:35;3.15;;;2.95;;
56045;SDS011;41913;51.030;3.706;2023-11-22T08:51:02;3.65;;;3.45;;
56045;SDS011;41913;51.030;3.706;2023-11-22T08:53:29;3.85;;;3.55;;
56045;SDS011;41913;51.030;3.706;2023-11-22T08:55:55;4.03;;;3.72;;
56045;SDS011;41913;51.030;3.706;2023-11-22T08:58:22;3.78;;;3.42;;
56045;SDS011;41913;51.030;3.706;2023-11-22T09:00:48;4.35;;;3.88;;
56045;SDS011;41913;51.030;3.706;2023-11-22T09:03:15;4.07;;;3.78;;
56045;SDS011;41913;51.030;3.706;2023-11-22T09:05:43;3.45;;;3.25;;
56045;SDS011;41913;51.030;3.706;2023-11-22T09:08:12;3.80;;;3.55;;
56045;SDS011;41913;51.030;3.706;2023-11-22T09:10:43;4.22;;;3.83;;
56045;SDS011;41913;51.030;3.706;2023-11-22T09:13:09;3.75;;;3.47;;
56045;SDS011;41913;51.030;3.706;2023-11-22T09:15:36;5.22;;;3.70;;
56045;SDS011;41913;51.030;3.706;2023-11-22T09:18:04;4.97;;;3.40;;
56045;SDS011;41913;51.030;3.706;2023-11-22T09:20:31;4.57;;;4.10;;
56045;SDS011;41913;51.030;3.706;2023-11-22T09:22:57;4.88;;;3.90;;
56045;SDS011;41913;51.030;3.706;2023-11-22T09:25:24;3.78;;;3.45;;
56045;SDS011;41913;51.030;3.706;2023-11-22T09:27:54;4.55;;;3.78;;
56045;SDS011;41913;51.030;3.706;2023-11-22T09:30:24;15.77;;;3.50;;
56045;SDS011;41913;51.030;3.706;2023-11-22T09:33:12;3.63;;;3.30;;
56045;SDS011;41913;51.030;3.706;2023-11-22T09:35:42;3.65;;;3.35;;
56045;SDS011;41913;51.030;3.706;2023-11-22T09:38:10;4.57;;;3.90;;
56045;SDS011;41913;51.030;3.706;2023-11-22T09:40:46;3.08;;;2.92;;
56045;SDS011;41913;51.030;3.706;2023-11-22T09:43:14;3.33;;;3.13;;
56045;SDS011;41913;51.030;3.706;2023-11-22T09:45:45;4.32;;;3.95;;
56045;SDS011;41913;51.030;3.706;2023-11-22T09:48:16;3.85;;;3.53;;
56045;SDS011;41913;51.030;3.706;2023-11-22T09:56:21;3.70;;;3.47;;
56045;SDS011;41913;51.030;3.706;2023-11-22T09:58:54;4.35;;;4.05;;
56045;SDS011;41913;51.030;3.706;2023-11-22T10:01:21;5.22;;;3.47;;
56045;SDS011;41913;51.030;3.706;2023-11-22T10:03:48;4.50;;;4.10;;
56045;SDS011;41913;51.030;3.706;2023-11-22T10:06:15;3.95;;;3.47;;
56045;SDS011;41913;51.030;3.706;2023-11-22T10:08:43;4.35;;;3.97;;
56045;SDS011;41913;51.030;3.706;2023-11-22T10:11:15;6.53;;;4.00;;
56045;SDS011;41913;51.030;3.706;2023-11-22T10:13:50;7.43;;;4.10;;
56045;SDS011;41913;51.030;3.706;2023-11-22T10:16:17;4.05;;;3.75;;
56045;SDS011;41913;51.030;3.706;2023-11-22T10:18:47;6.43;;;3.60;;
56045;SDS011;41913;51.030;3.706;2023-11-22T10:21:27;4.53;;;4.18;;
56045;SDS011;41913;51.030;3.706;2023-11-22T10:23:55;9.73;;;4.03;;
56045;SDS011;41913;51.030;3.706;2023-11-22T10:26:22;3.58;;;3.17;;
56045;SDS011;41913;51.030;3.706;2023-11-22T10:28:52;4.95;;;4.30;;
56045;SDS011;41913;51.030;3.706;2023-11-22T10:31:20;3.65;;;3.45;;
56045;SDS011;41913;51.030;3.706;2023-11-22T10:33:50;7.18;;;4.43;;
56045;SDS011;41913;51.030;3.706;2023-11-22T10:36:19;3.90;;;3.60;;
56045;SDS011;41913;51.030;3.706;2023-11-22T10:38:48;4.25;;;3.30;;
56045;SDS011;41913;51.030;3.706;2023-11-22T10:41:15;4.20;;;3.83;;
56045;SDS011;41913;51.030;3.706;2023-11-22T10:43:42;2.95;;;2.75;;
56045;SDS011;41913;51.030;3.706;2023-11-22T10:46:10;3.50;;;3.25;;
56045;SDS011;41913;51.030;3.706;2023-11-22T10:48:38;3.55;;;3.30;;
56045;SDS011;41913;51.030;3.706;2023-11-22T10:51:06;3.33;;;2.90;;
56045;SDS011;41913;51.030;3.706;2023-11-22T10:53:36;4.47;;;4.07;;
56045;SDS011;41913;51.030;3.706;2023-11-22T10:56:11;4.07;;;3.78;;
56045;SDS011;41913;51.030;3.706;2023-11-22T10:58:52;3.90;;;3.60;;
56045;SDS011;41913;51.030;3.706;2023-11-22T11:01:25;3.70;;;3.40;;
56045;SDS011;41913;51.030;3.706;2023-11-22T11:04:08;3.90;;;3.60;;
56045;SDS011;41913;51.030;3.706;2023-11-22T11:06:42;4.28;;;3.85;;
56045;SDS011;41913;51.030;3.706;2023-11-22T11:09:12;4.30;;;3.55;;
56045;SDS011;41913;51.030;3.706;2023-11-22T11:11:40;4.45;;;4.07;;
56045;SDS011;41913;51.030;3.706;2023-11-22T11:14:08;5.00;;;3.78;;
56045;SDS011;41913;51.030;3.706;2023-11-22T11:16:38;4.90;;;4.13;;
56045;SDS011;41913;51.030;3.706;2023-11-22T11:19:07;6.10;;;4.75;;
56045;SDS011;41913;51.030;3.706;2023-11-22T11:21:37;4.78;;;4.32;;
56045;SDS011;41913;51.030;3.706;2023-11-22T11:24:05;5.30;;;4.90;;
56045;SDS011;41913;51.030;3.706;2023-11-22T11:26:32;5.20;;;4.75;;
56045;SDS011;41913;51.030;3.706;2023-11-22T11:29:01;4.50;;;4.20;;
56045;SDS011;41913;51.030;3.706;2023-11-22T11:31:38;5.60;;;5.18;;
56045;SDS011;41913;51.030;3.706;2023-11-22T11:34:08;5.38;;;4.97;;
56045;SDS011;41913;51.030;3.706;2023-11-22T11:36:37;6.20;;;5.05;;
56045;SDS011;41913;51.030;3.706;2023-11-22T11:39:06;6.03;;;5.13;;
56045;SDS011;41913;51.030;3.706;2023-11-22T11:41:40;5.60;;;5.10;;
56045;SDS011;41913;51.030;3.706;2023-11-22T11:44:09;4.80;;;4.50;;
56045;SDS011;41913;51.030;3.706;2023-11-22T11:46:39;6.03;;;5.53;;
56045;SDS011;41913;51.030;3.706;2023-11-22T11:49:10;7.90;;;7.07;;
56045;SDS011;41913;51.030;3.706;2023-11-22T11:51:40;9.60;;;6.95;;
56045;SDS011;41913;51.030;3.706;2023-11-22T11:54:07;10.20;;;7.65;;
56045;SDS011;41913;51.030;3.706;2023-11-22T11:56:34;7.95;;;7.22;;
56045;SDS011;41913;51.030;3.706;2023-11-22T11:59:02;9.07;;;6.82;;
56045;SDS011;41913;51.030;3.706;2023-11-22T12:01:28;11.57;;;6.65;;
56045;SDS011;41913;51.030;3.706;2023-11-22T12:03:57;6.47;;;5.90;;
56045;SDS011;41913;51.030;3.706;2023-11-22T12:06:25;13.52;;;6.03;;
56045;SDS011;41913;51.030;3.706;2023-11-22T12:08:53;12.07;;;5.40;;
56045;SDS011;41913;51.030;3.706;2023-11-22T12:11:21;8.93;;;5.68;;
56045;SDS011;41913;51.030;3.706;2023-11-22T12:13:47;6.65;;;5.95;;
56045;SDS011;41913;51.030;3.706;2023-11-22T12:16:15;8.02;;;5.70;;
56045;SDS011;41913;51.030;3.706;2023-11-22T12:18:48;6.45;;;5.85;;
56045;SDS011;41913;51.030;3.706;2023-11-22T12:21:16;8.60;;;5.90;;
56045;SDS011;41913;51.030;3.706;2023-11-22T12:23:43;8.18;;;6.20;;
56045;SDS011;41913;51.030;3.706;2023-11-22T12:26:12;6.10;;;5.57;;
56045;SDS011;41913;51.030;3.706;2023-11-22T12:28:40;8.82;;;6.15;;
56045;SDS011;41913;51.030;3.706;2023-11-22T12:31:08;10.55;;;6.85;;
56045;SDS011;41913;51.030;3.706;2023-11-22T12:36:09;7.53;;;6.68;;
56045;SDS011;41913;51.030;3.706;2023-11-22T12:38:36;13.35;;;6.80;;
56045;SDS011;41913;51.030;3.706;2023-11-22T12:41:02;6.63;;;5.75;;
56045;SDS011;41913;51.030;3.706;2023-11-22T12:43:28;9.32;;;5.40;;
56045;SDS011;41913;51.030;3.706;2023-11-22T12:46:06;6.53;;;5.82;;
56045;SDS011;41913;51.030;3.706;2023-11-22T12:48:32;6.25;;;5.75;;
56045;SDS011;41913;51.030;3.706;2023-11-22T12:50:59;8.10;;;5.68;;
56045;SDS011;41913;51.030;3.706;2023-11-22T12:53:26;6.85;;;5.07;;
56045;SDS011;41913;51.030;3.706;2023-11-22T12:55:54;6.95;;;5.82;;
56045;SDS011;41913;51.030;3.706;2023-11-22T12:58:24;7.00;;;6.40;;
56045;SDS011;41913;51.030;3.706;2023-11-22T13:00:54;6.70;;;5.53;;
56045;SDS011;41913;51.030;3.706;2023-11-22T13:03:23;7.82;;;5.80;;
56045;SDS011;41913;51.030;3.706;2023-11-22T13:05:50;6.18;;;5.68;;
56045;SDS011;41913;51.030;3.706;2023-11-22T13:08:19;6.75;;;5.85;;
56045;SDS011;41913;51.030;3.706;2023-11-22T13:10:47;10.38;;;5.43;;
56045;SDS011;41913;51.030;3.706;2023-11-22T13:13:22;7.35;;;5.38;;
56045;SDS011;41913;51.030;3.706;2023-11-22T13:15:49;5.78;;;5.38;;
56045;SDS011;41913;51.030;3.706;2023-11-22T13:18:18;8.48;;;5.88;;
56045;SDS011;41913;51.030;3.706;2023-11-22T13:20:44;6.22;;;5.72;;
56045;SDS011;41913;51.030;3.706;2023-11-22T13:23:11;8.18;;;5.85;;
56045;SDS011;41913;51.030;3.706;2023-11-22T13:25:40;5.75;;;5.35;;
56045;SDS011;41913;51.030;3.706;2023-11-22T13:28:06;6.03;;;4.85;;
56045;SDS011;41913;51.030;3.706;2023-11-22T13:30:34;5.32;;;4.82;;
56045;SDS011;41913;51.030;3.706;2023-11-22T13:35:29;10.32;;;5.65;;
56045;SDS011;41913;51.030;3.706;2023-11-22T13:37:59;7.82;;;6.00;;
56045;SDS011;41913;51.030;3.706;2023-11-22T13:40:27;7.13;;;6.20;;
56045;SDS011;41913;51.030;3.706;2023-11-22T13:42:56;7.78;;;5.45;;
56045;SDS011;41913;51.030;3.706;2023-11-22T13:45:24;6.53;;;5.68;;
56045;SDS011;41913;51.030;3.706;2023-11-22T13:47:51;5.50;;;5.10;;
56045;SDS011;41913;51.030;3.706;2023-11-22T13:50:22;7.43;;;6.68;;
56045;SDS011;41913;51.030;3.706;2023-11-22T13:52:50;8.38;;;5.63;;
56045;SDS011;41913;51.030;3.706;2023-11-22T13:55:17;5.78;;;5.05;;
56045;SDS011;41913;51.030;3.706;2023-11-22T13:57:48;7.18;;;5.03;;
56045;SDS011;41913;51.030;3.706;2023-11-22T14:00:15;6.30;;;5.22;;
56045;SDS011;41913;51.030;3.706;2023-11-22T14:02:49;5.97;;;4.97;;
56045;SDS011;41913;51.030;3.706;2023-11-22T14:05:25;6.22;;;5.22;;
56045;SDS011;41913;51.030;3.706;2023-11-22T14:07:55;8.35;;;5.47;;
56045;SDS011;41913;51.030;3.706;2023-11-22T14:10:21;6.82;;;5.13;;
56045;SDS011;41913;51.030;3.706;2023-11-22T14:12:48;8.13;;;5.28;;
56045;SDS011;41913;51.030;3.706;2023-11-22T14:15:15;10.20;;;5.35;;
56045;SDS011;41913;51.030;3.706;2023-11-22T14:17:42;7.30;;;5.10;;
56045;SDS011;41913;51.030;3.706;2023-11-22T14:20:09;8.52;;;5.28;;
56045;SDS011;41913;51.030;3.706;2023-11-22T14:22:39;5.55;;;5.00;;
56045;SDS011;41913;51.030;3.706;2023-11-22T14:25:05;10.18;;;4.97;;
56045;SDS011;41913;51.030;3.706;2023-11-22T14:27:39;7.68;;;5.00;;
56045;SDS011;41913;51.030;3.706;2023-11-22T14:30:09;9.63;;;4.82;;
56045;SDS011;41913;51.030;3.706;2023-11-22T14:32:39;6.63;;;4.88;;
56045;SDS011;41913;51.030;3.706;2023-11-22T14:35:05;9.90;;;5.57;;
56045;SDS011;41913;51.030;3.706;2023-11-22T14:37:34;15.25;;;4.97;;
56045;SDS011;41913;51.030;3.706;2023-11-22T14:40:01;8.68;;;5.80;;
56045;SDS011;41913;51.030;3.706;2023-11-22T14:42:30;7.65;;;4.95;;
56045;SDS011;41913;51.030;3.706;2023-11-22T14:44:56;8.75;;;5.72;;
56045;SDS011;41913;51.030;3.706;2023-11-22T14:47:22;8.20;;;5.18;;
56045;SDS011;41913;51.030;3.706;2023-11-22T14:49:50;6.78;;;4.85;;
56045;SDS011;41913;51.030;3.706;2023-11-22T14:52:16;9.10;;;5.63;;
56045;SDS011;41913;51.030;3.706;2023-11-22T14:54:46;9.15;;;5.05;;
56045;SDS011;41913;51.030;3.706;2023-11-22T14:57:13;15.48;;;5.22;;
56045;SDS011;41913;51.030;3.706;2023-11-22T14:59:42;9.70;;;5.45;;
56045;SDS011;41913;51.030;3.706;2023-11-22T15:02:09;9.85;;;6.07;;
56045;SDS011;41913;51.030;3.706;2023-11-22T15:04:37;9.52;;;4.80;;
56045;SDS011;41913;51.030;3.706;2023-11-22T15:07:06;8.30;;;5.05;;